This is the latest recevied weather packets stored in our database for station/object EA7RX-4. If no packets are shown the sender has not sent any weather packets the latest 10 day(s).
| Time | Temp. | Humidity | Pressure | Rain* | Wind** | Luminosity | Snow |
|---|---|---|---|---|---|---|---|
| 1787716803 | 17.78° C | 56% | 1012.4 hPa | 0 mm | - | 0 W/m² | - |
| 1787716203 | 18.89° C | 52% | 1012.4 hPa | 0 mm | - | 0 W/m² | - |
| 1787715603 | 18.89° C | 53% | 1012.7 hPa | 0 mm | - | 0 W/m² | - |
| 1787715003 | 19.44° C | 51% | 1012.6 hPa | 0 mm | - | 0 W/m² | - |
| 1787714403 | 18.33° C | 53% | 1012.8 hPa | 0 mm | - | 0 W/m² | - |
| 1787713803 | 18.33° C | 54% | 1012.5 hPa | 0 mm | - | 0 W/m² | - |
| 1787713203 | 17.78° C | 56% | 1012.6 hPa | 0 mm | - | 0 W/m² | - |
| 1787712603 | 17.78° C | 56% | 1012.5 hPa | 0 mm | - | 0 W/m² | - |
| 1787712003 | 17.78° C | 56% | 1012.8 hPa | 0 mm | - | 0 W/m² | - |
| 1787711403 | 17.22° C | 56% | 1012.9 hPa | 0 mm | - | 0 W/m² | - |
| 1787710803 | 17.22° C | 56% | 1013 hPa | 0 mm | - | 0 W/m² | - |
| 1787710203 | 17.22° C | 56% | 1013.2 hPa | 0 mm | - | 0 W/m² | - |
| 1787709603 | 17.78° C | 55% | 1013.2 hPa | 0 mm | - | 0 W/m² | - |
| 1787709003 | 18.33° C | 53% | 1013.2 hPa | 0 mm | - | 0 W/m² | - |
| 1787708403 | 18.89° C | 51% | 1013 hPa | 0 mm | - | 0 W/m² | - |
| 1787707803 | 20° C | 50% | 1013.3 hPa | 0 mm | - | 0 W/m² | - |
| 1787707203 | 20° C | 49% | 1013.3 hPa | 0 mm | - | 0 W/m² | - |
| 1787706603 | 20.56° C | 48% | 1013.4 hPa | 0 mm | - | 0 W/m² | - |
| 1787706003 | 20.56° C | 47% | 1013.7 hPa | 0 mm | - | 0 W/m² | - |
| 1787705403 | 21.11° C | 46% | 1013.6 hPa | 0 mm | - | 0 W/m² | - |
| 1787704803 | 21.11° C | 46% | 1014 hPa | 0 mm | - | 0 W/m² | - |
| 1787704203 | 21.11° C | 46% | 1014.1 hPa | 0 mm | - | 0 W/m² | - |
| 1787703603 | 21.67° C | 46% | 1014.2 hPa | 0 mm | - | 0 W/m² | - |
| 1787703003 | 21.67° C | 46% | 1014.2 hPa | 0 mm | - | 0 W/m² | - |
| 1787702403 | 21.67° C | 46% | 1014 hPa | 0 mm | - | 0 W/m² | - |
* Rain latest hour (hover to see other rain measurements)
** Current wind speed in m/s (hover to see current wind gust speed)